KADW/ADW METAR and TAF weather

Enter ICAO airport designator
Station Type Date Time Source
KADW METAR 2018/01/16 09:08 UTC NOAA

KADW 160908Z AUTO 12003KT 2 1/2SM R01R/5000FT BR OVC003 M02/M03 A3044 RMK AO2 VIS 2 1/2V4 SLP319


Station Type Date Time Source
KADW Decoded METAR 2018/01/16 09:08 UTC NOAA

Camp Springs / Andrews Air Force Base, MD, United States (KADW) 38-49N 076-51W 88M
Jan 16, 2018 - 04:08 AM EST / 2018.01.16 0908 UTC
Wind: from the ESE (120 degrees) at 3 MPH (3 KT):0
Visibility: 2 1/2 mile(s):0
Sky conditions: overcast
Weather: mist
Temperature: 28 F (-2 C)
Dew Point: 26 F (-3 C)
Relative Humidity: 92%
Pressure (altimeter): 30.44 in. Hg (1030 hPa)
ob: KADW 160908Z AUTO 12003KT 2 1/2SM R01R/5000FT BR OVC003 M02/M03 A3044 RMK AO2 VIS 2 1/2V4 SLP319
cycle: 9

Station Type Date Time Source
KADW TAF 2018/01/16 09:07 UTC NOAA

TAF KADW 160900Z 1609/1715 VRB06KT 9999 BKN005 620059 QNH3040INS
BECMG 1614/1615 VRB06KT 9999 FEW040 QNH3047INS
BECMG 1705/1706 31006KT 2400 -SN OVC010 620109 QNH3042INS
BECMG 1711/1712 33015G20KT 8000 -SN SCT010 OVC020 620208 QNH3045INS
BECMG 1714/1715 32015G20KT 9999 NSW FEW030 QNH3050INS TX02/1617Z TNM03/1611Z


Example: see airport list